Bei Facebook empfehlenBei Twitter postenGoogle plusPinterest

Das Wetter im Erzgebirge am 05.03.2016

Wetter und Klima am 05.03.2016 Holzhau im Erzgebirge (630m ü.NN)
Letzte gemessene Temperatur und Uhrzeit der Messung23:45:00 Uhr0.50 °C
Temperatur (Maximum / Höchstwert) und Uhrzeit der Messung10:30:00 Uhr5.80 °C
Temperatur (Minimum / Tiefstwert) und Uhrzeit der Messung07:00:00-0.70 °C
Errechneter Absolutwert der Temperaturschwankungen zwischen Tmin und Tmax des Tages6.50 K
Errechnete Tagesmitteltemperatur1.83125 °C
Gesamt - Niederschlag des Tages (in flüssiger Form)0.00 Liter / m²
Luftdruck (Maximum / Höchstwert) und Zeitpunkt der Messung00:15:00 Uhr995.30 hPa
Luftdruck (Minimum / Tiefstwert) und Zeitpunkt der Messung17:45:00 Uhr992.00 hPa
Errechneter Absolutwert der Luftdruckschwankungen des Tages3.30 hPa
Höchste gemessene Windgeschwindigkeit und Uhrzeit der Messung10:30:00 Uhr21.60 km/h
Errechnete Windhäufigkeit in Relation zu den Messwerten des Tages29.16667 %
Niedrigste Windkühle (Windchill) und Zeitpunkt der Messung01:15:00 Uhr-3.30 °C
Taupunkt (Maximum / Höchstwert) und Uhrzeit der Messung10:00:00 Uhr2.30 °C
Taupunkt (Minimum / Tiefstwert) und Uhrzeit der Messung00:30:00-3.30 °C
Anzahl der automatisch eingelesenen Messwerte 96

Detaillierte Wetter- und Klima- Messwerte für den 05.03.2016 in Holzhau im Erzgebirge (630m ü.NN)
ZeitTemperaturLuftdruckRel. LuftfeuchteWindWindrichtungWindchillTaupunktNiederschlag l/m²
23:45:000.50 °C992.50 hPa90.00 %-0.90 °C 
23:30:000.80 °C992.60 hPa90.00 %-0.60 °C 
23:15:000.90 °C992.70 hPa89.00 %-0.70 °C 
23:00:000.90 °C992.60 hPa89.00 %-0.70 °C 
22:45:000.90 °C992.70 hPa89.00 %-0.70 °C 
22:30:000.80 °C992.40 hPa89.00 %-0.80 °C 
22:15:000.90 °C992.30 hPa89.00 %-0.70 °C 
22:00:001.10 °C992.50 hPa89.00 %-0.50 °C 
21:45:001.30 °C992.50 hPa89.00 %-0.30 °C 
21:30:001.30 °C992.60 hPa89.00 %-0.30 °C 
21:15:001.30 °C992.70 hPa89.00 %-0.30 °C 
21:00:001.40 °C992.70 hPa88.00 %-0.40 °C 
20:45:001.50 °C992.80 hPa88.00 %-0.30 °C 
20:30:001.50 °C993.00 hPa88.00 %-0.30 °C 
20:15:001.30 °C993.00 hPa87.00 %-0.60 °C 
20:00:001.40 °C992.80 hPa88.00 %-0.40 °C 
19:45:001.60 °C992.60 hPa88.00 %-0.20 °C 
19:30:001.80 °C992.70 hPa87.00 %-0.10 °C 
19:15:001.80 °C992.50 hPa87.00 %-0.10 °C 
19:00:001.70 °C992.60 hPa87.00 %-0.20 °C 
18:45:001.70 °C992.90 hPa86.00 %-0.40 °C 
18:30:001.60 °C993.10 hPa85.00 %-0.60 °C 
18:15:001.80 °C992.60 hPa86.00 %-0.30 °C 
18:00:001.90 °C992.40 hPa85.00 %-0.30 °C 
17:45:002.10 °C992.00 hPa85.00 %-0.20 °C 
17:30:002.20 °C992.50 hPa85.00 %3.24 km/hSO2.20 °C-0.10 °C 
17:15:002.30 °C992.90 hPa84.00 %7.56 km/hO0.10 °C-0.10 °C 
17:00:002.50 °C992.50 hPa84.00 %6.12 km/hNNO0.80 °C0.10 °C 
16:45:002.70 °C992.20 hPa83.00 %0.10 °C 
16:30:002.80 °C992.50 hPa83.00 %0.20 °C 
16:15:002.90 °C992.60 hPa82.00 %0.10 °C 
16:00:003.00 °C992.30 hPa81.00 %0.10 °C 
15:45:003.10 °C992.10 hPa81.00 %2.88 km/hSSW3.10 °C0.20 °C 
15:30:003.10 °C992.20 hPa80.00 %0.00 °C 
15:15:003.40 °C992.40 hPa79.00 %7.20 km/hOSO1.50 °C0.10 °C 
15:00:003.60 °C992.50 hPa78.00 %0.10 °C 
14:45:004.20 °C992.60 hPa76.00 %0.40 °C 
14:30:004.80 °C992.50 hPa76.00 %0.90 °C 
14:15:005.20 °C992.40 hPa75.00 %1.10 °C 
14:00:005.40 °C992.50 hPa76.00 %1.50 °C 
13:45:005.10 °C992.30 hPa76.00 %1.20 °C 
13:30:005.00 °C992.30 hPa76.00 %9.36 km/hNO2.80 °C1.10 °C 
13:15:005.00 °C992.80 hPa76.00 %14.76 km/hNNW1.80 °C1.10 °C 
13:00:005.10 °C992.90 hPa77.00 %2.88 km/hSO5.10 °C1.40 °C 
12:45:004.50 °C993.20 hPa78.00 %1.00 °C 
12:30:004.20 °C992.70 hPa79.00 %12.96 km/hSSO1.10 °C0.90 °C 
12:15:003.90 °C992.90 hPa78.00 %16.56 km/hSO0.20 °C0.40 °C 
12:00:004.40 °C993.00 hPa77.00 %10.80 km/hSSO1.80 °C0.70 °C 
11:45:004.60 °C993.40 hPa77.00 %19.44 km/hSO0.60 °C0.90 °C 
11:30:004.40 °C993.20 hPa76.00 %8.28 km/hSO2.40 °C0.60 °C 
11:15:004.60 °C993.00 hPa76.00 %9.72 km/hSO2.20 °C0.70 °C 
11:00:004.60 °C992.60 hPa75.00 %2.16 km/hOSO4.60 °C0.60 °C 
10:45:005.60 °C992.90 hPa74.00 %5.40 km/hOSO4.60 °C1.30 °C 
10:30:005.80 °C992.60 hPa75.00 %21.60 km/hSO1.90 °C1.70 °C 
10:15:005.50 °C992.50 hPa79.00 %2.20 °C 
10:00:005.10 °C992.90 hPa82.00 %2.30 °C 
09:45:004.20 °C993.00 hPa83.00 %6.48 km/hS2.60 °C1.60 °C 
09:30:003.40 °C993.20 hPa84.00 %9.72 km/hONO0.80 °C1.00 °C 
09:15:003.10 °C993.10 hPa87.00 %1.20 °C 
09:00:002.60 °C993.40 hPa88.00 %0.80 °C 
08:45:001.80 °C993.50 hPa88.00 %0.00 °C 
08:30:001.30 °C993.60 hPa89.00 %8.64 km/hNNO-1.40 °C-0.30 °C 
08:15:000.40 °C993.50 hPa89.00 %6.48 km/hSO-1.80 °C-1.20 °C 
08:00:00-0.10 °C993.40 hPa88.00 %-2.00 °C 
07:45:00-0.20 °C993.30 hPa88.00 %-2.10 °C 
07:30:00-0.20 °C993.60 hPa88.00 %-2.10 °C 
07:15:00-0.50 °C993.70 hPa88.00 %-2.40 °C 
07:00:00-0.70 °C993.60 hPa88.00 %-2.60 °C 
06:45:00-0.70 °C993.50 hPa88.00 %5.76 km/hNNO-2.70 °C-2.60 °C 
06:30:00-0.70 °C993.00 hPa88.00 %-2.60 °C 
06:15:00-0.50 °C993.30 hPa87.00 %-2.60 °C 
06:00:00-0.40 °C993.20 hPa87.00 %-2.50 °C 
05:45:00-0.20 °C993.40 hPa87.00 %-2.30 °C 
05:30:00-0.20 °C993.50 hPa87.00 %5.04 km/hSSO-1.80 °C-2.30 °C 
05:15:00-0.40 °C993.50 hPa87.00 %-2.50 °C 
05:00:00-0.20 °C993.60 hPa86.00 %-2.50 °C 
04:45:00-0.20 °C993.40 hPa86.00 %-2.50 °C 
04:30:00-0.10 °C993.50 hPa86.00 %-2.40 °C 
04:15:00-0.10 °C993.80 hPa86.00 %-2.40 °C 
04:00:000.10 °C994.10 hPa86.00 %-2.00 °C 
03:45:000.10 °C994.10 hPa86.00 %-2.00 °C 
03:30:000.10 °C994.20 hPa85.00 %-2.10 °C 
03:15:000.10 °C994.30 hPa85.00 %5.76 km/hSSO-1.80 °C-2.10 °C 
03:00:000.10 °C994.10 hPa85.00 %-2.10 °C 
02:45:000.10 °C994.00 hPa84.00 %5.04 km/hNNW-1.50 °C-2.30 °C 
02:30:000.10 °C994.30 hPa84.00 %-2.30 °C 
02:15:000.30 °C994.30 hPa84.00 %-2.10 °C 
02:00:000.30 °C994.40 hPa84.00 %-2.10 °C 
01:45:000.30 °C994.50 hPa84.00 %-2.10 °C 
01:30:000.20 °C994.50 hPa83.00 %5.04 km/hSSO-1.40 °C-2.30 °C 
01:15:00-0.10 °C994.50 hPa83.00 %9.36 km/hNNO-3.30 °C-2.90 °C 
01:00:00-0.20 °C994.80 hPa83.00 %-3.00 °C 
00:45:00-0.10 °C995.10 hPa82.00 %2.16 km/hOSO-0.10 °C-3.10 °C 
00:30:00-0.10 °C995.00 hPa81.00 %-3.30 °C 
00:15:000.20 °C995.30 hPa81.00 %-2.70 °C 
00:00:000.50 °C995.30 hPa80.00 %-2.50 °C 

Permanenter Link zu dieser Seite: Wetter im Erzgebirge am 05.03.2016
Performance-Info: Die Erstellung der Seite / Statistik(en) / Tabelle(n) erforderte 5 Datenbankserver-Abfrage(n) und dauerte 101 Millisekunden. (Dieser Messwert ist von der Gesamt-Auslastung des Servers abhängig.)
Erzgebirge - Wetter | Erzgebirge - Wetter (Mobilgeräte) | Komplette Klimadatenbank